sensor_id;sensor_type;location;lat;lon;timestamp;temperature;humidity
49731;DHT22;35622;52.008;5.426;2023-09-08T00:00:41;21.00;73.50
49731;DHT22;35622;52.008;5.426;2023-09-08T00:03:06;21.00;73.70
49731;DHT22;35622;52.008;5.426;2023-09-08T00:05:32;21.00;73.80
49731;DHT22;35622;52.008;5.426;2023-09-08T00:07:57;21.00;73.60
49731;DHT22;35622;52.008;5.426;2023-09-08T00:10:24;21.00;73.80
49731;DHT22;35622;52.008;5.426;2023-09-08T00:12:49;20.90;73.90
49731;DHT22;35622;52.008;5.426;2023-09-08T00:15:15;20.90;74.10
49731;DHT22;35622;52.008;5.426;2023-09-08T00:17:40;21.00;74.50
49731;DHT22;35622;52.008;5.426;2023-09-08T00:20:06;21.00;74.40
49731;DHT22;35622;52.008;5.426;2023-09-08T00:22:35;21.00;74.30
49731;DHT22;35622;52.008;5.426;2023-09-08T00:25:01;20.90;74.50
49731;DHT22;35622;52.008;5.426;2023-09-08T00:27:27;20.90;75.20
49731;DHT22;35622;52.008;5.426;2023-09-08T00:29:52;21.00;75.30
49731;DHT22;35622;52.008;5.426;2023-09-08T00:32:18;21.10;75.40
49731;DHT22;35622;52.008;5.426;2023-09-08T00:34:43;21.10;75.40
49731;DHT22;35622;52.008;5.426;2023-09-08T00:37:09;21.10;75.10
49731;DHT22;35622;52.008;5.426;2023-09-08T00:39:38;21.10;75.50
49731;DHT22;35622;52.008;5.426;2023-09-08T00:42:04;21.10;75.60
49731;DHT22;35622;52.008;5.426;2023-09-08T00:44:29;21.20;75.80
49731;DHT22;35622;52.008;5.426;2023-09-08T00:46:55;21.30;75.20
49731;DHT22;35622;52.008;5.426;2023-09-08T00:49:21;21.30;75.50
49731;DHT22;35622;52.008;5.426;2023-09-08T00:51:48;21.30;75.70
49731;DHT22;35622;52.008;5.426;2023-09-08T00:54:15;21.30;75.50
49731;DHT22;35622;52.008;5.426;2023-09-08T00:56:40;21.40;75.30
49731;DHT22;35622;52.008;5.426;2023-09-08T00:59:07;21.40;76.40
49731;DHT22;35622;52.008;5.426;2023-09-08T01:01:33;21.40;75.30
49731;DHT22;35622;52.008;5.426;2023-09-08T01:04:00;21.50;75.30
49731;DHT22;35622;52.008;5.426;2023-09-08T01:06:27;21.50;75.80
49731;DHT22;35622;52.008;5.426;2023-09-08T01:08:53;21.50;75.90
49731;DHT22;35622;52.008;5.426;2023-09-08T01:11:20;21.50;75.60
49731;DHT22;35622;52.008;5.426;2023-09-08T01:13:45;21.40;75.50
49731;DHT22;35622;52.008;5.426;2023-09-08T01:16:11;21.40;76.00
49731;DHT22;35622;52.008;5.426;2023-09-08T01:18:37;21.40;76.20
49731;DHT22;35622;52.008;5.426;2023-09-08T01:23:59;21.50;76.40
49731;DHT22;35622;52.008;5.426;2023-09-08T01:26:35;21.50;76.50
49731;DHT22;35622;52.008;5.426;2023-09-08T01:29:03;21.40;76.30
49731;DHT22;35622;52.008;5.426;2023-09-08T01:31:29;21.50;76.50
49731;DHT22;35622;52.008;5.426;2023-09-08T01:33:55;21.60;76.90
49731;DHT22;35622;52.008;5.426;2023-09-08T01:36:21;21.50;77.00
49731;DHT22;35622;52.008;5.426;2023-09-08T01:38:46;21.60;78.10
49731;DHT22;35622;52.008;5.426;2023-09-08T01:41:12;21.60;76.90
49731;DHT22;35622;52.008;5.426;2023-09-08T01:43:37;21.60;76.90
49731;DHT22;35622;52.008;5.426;2023-09-08T01:46:03;21.60;77.00
49731;DHT22;35622;52.008;5.426;2023-09-08T01:48:28;21.60;77.00
49731;DHT22;35622;52.008;5.426;2023-09-08T01:50:54;21.60;77.00
49731;DHT22;35622;52.008;5.426;2023-09-08T01:53:19;21.60;77.00
49731;DHT22;35622;52.008;5.426;2023-09-08T01:55:45;21.60;76.80
49731;DHT22;35622;52.008;5.426;2023-09-08T01:58:11;21.60;76.80
49731;DHT22;35622;52.008;5.426;2023-09-08T02:00:36;21.60;77.00
49731;DHT22;35622;52.008;5.426;2023-09-08T02:03:02;21.60;77.10
49731;DHT22;35622;52.008;5.426;2023-09-08T02:05:27;21.60;77.20
49731;DHT22;35622;52.008;5.426;2023-09-08T02:07:53;21.50;77.20
49731;DHT22;35622;52.008;5.426;2023-09-08T02:10:20;21.50;77.20
49731;DHT22;35622;52.008;5.426;2023-09-08T02:12:46;21.60;77.20
49731;DHT22;35622;52.008;5.426;2023-09-08T02:15:11;21.50;77.20
49731;DHT22;35622;52.008;5.426;2023-09-08T02:17:37;21.50;77.30
49731;DHT22;35622;52.008;5.426;2023-09-08T02:20:03;21.50;77.10
49731;DHT22;35622;52.008;5.426;2023-09-08T02:22:28;21.40;77.40
49731;DHT22;35622;52.008;5.426;2023-09-08T02:24:54;21.40;77.60
49731;DHT22;35622;52.008;5.426;2023-09-08T02:27:21;21.40;77.70
49731;DHT22;35622;52.008;5.426;2023-09-08T02:29:47;21.50;77.80
49731;DHT22;35622;52.008;5.426;2023-09-08T02:32:12;21.40;77.70
49731;DHT22;35622;52.008;5.426;2023-09-08T02:34:39;21.50;77.80
49731;DHT22;35622;52.008;5.426;2023-09-08T02:37:06;21.40;77.80
49731;DHT22;35622;52.008;5.426;2023-09-08T02:39:32;21.40;77.70
49731;DHT22;35622;52.008;5.426;2023-09-08T02:41:58;21.50;77.70
49731;DHT22;35622;52.008;5.426;2023-09-08T02:44:23;21.40;77.60
49731;DHT22;35622;52.008;5.426;2023-09-08T02:46:50;21.40;77.70
49731;DHT22;35622;52.008;5.426;2023-09-08T02:49:16;21.40;77.50
49731;DHT22;35622;52.008;5.426;2023-09-08T02:51:41;21.40;77.40
49731;DHT22;35622;52.008;5.426;2023-09-08T02:54:07;21.40;77.50
49731;DHT22;35622;52.008;5.426;2023-09-08T02:56:32;21.40;77.70
49731;DHT22;35622;52.008;5.426;2023-09-08T02:58:58;21.40;77.80
49731;DHT22;35622;52.008;5.426;2023-09-08T03:01:23;21.40;77.80
49731;DHT22;35622;52.008;5.426;2023-09-08T03:03:49;21.40;77.90
49731;DHT22;35622;52.008;5.426;2023-09-08T03:06:17;21.40;78.00
49731;DHT22;35622;52.008;5.426;2023-09-08T03:08:43;21.40;78.00
49731;DHT22;35622;52.008;5.426;2023-09-08T03:11:08;21.40;77.90
49731;DHT22;35622;52.008;5.426;2023-09-08T03:13:34;21.40;77.90
49731;DHT22;35622;52.008;5.426;2023-09-08T03:16:05;21.30;77.90
49731;DHT22;35622;52.008;5.426;2023-09-08T03:18:34;21.30;77.90
49731;DHT22;35622;52.008;5.426;2023-09-08T03:21:02;21.30;78.10
49731;DHT22;35622;52.008;5.426;2023-09-08T03:23:37;21.30;78.00
49731;DHT22;35622;52.008;5.426;2023-09-08T03:26:03;21.30;77.80
49731;DHT22;35622;52.008;5.426;2023-09-08T03:28:28;21.20;77.90
49731;DHT22;35622;52.008;5.426;2023-09-08T03:30:54;21.20;77.90
49731;DHT22;35622;52.008;5.426;2023-09-08T03:33:19;21.30;77.70
49731;DHT22;35622;52.008;5.426;2023-09-08T03:35:45;21.20;78.00
49731;DHT22;35622;52.008;5.426;2023-09-08T03:38:10;21.30;77.90
49731;DHT22;35622;52.008;5.426;2023-09-08T03:40:36;21.20;77.80
49731;DHT22;35622;52.008;5.426;2023-09-08T03:43:03;21.20;77.80
49731;DHT22;35622;52.008;5.426;2023-09-08T03:45:29;21.20;77.70
49731;DHT22;35622;52.008;5.426;2023-09-08T03:47:54;21.20;77.80
49731;DHT22;35622;52.008;5.426;2023-09-08T03:50:20;21.10;77.80
49731;DHT22;35622;52.008;5.426;2023-09-08T03:52:45;21.20;77.80
49731;DHT22;35622;52.008;5.426;2023-09-08T03:55:11;21.20;77.70
49731;DHT22;35622;52.008;5.426;2023-09-08T03:57:37;21.20;77.80
49731;DHT22;35622;52.008;5.426;2023-09-08T04:00:02;21.20;78.00
49731;DHT22;35622;52.008;5.426;2023-09-08T04:02:30;21.10;78.20
49731;DHT22;35622;52.008;5.426;2023-09-08T04:04:56;21.10;78.20
49731;DHT22;35622;52.008;5.426;2023-09-08T04:07:21;21.10;78.30
49731;DHT22;35622;52.008;5.426;2023-09-08T04:09:47;20.90;78.40
49731;DHT22;35622;52.008;5.426;2023-09-08T04:12:12;21.00;78.70
49731;DHT22;35622;52.008;5.426;2023-09-08T04:14:38;21.00;78.70
49731;DHT22;35622;52.008;5.426;2023-09-08T04:17:03;21.00;78.70
49731;DHT22;35622;52.008;5.426;2023-09-08T04:19:29;21.00;78.80
49731;DHT22;35622;52.008;5.426;2023-09-08T04:21:54;21.00;79.00
49731;DHT22;35622;52.008;5.426;2023-09-08T04:24:20;20.90;79.60
49731;DHT22;35622;52.008;5.426;2023-09-08T04:26:45;20.90;79.50
49731;DHT22;35622;52.008;5.426;2023-09-08T04:29:11;20.90;79.50
49731;DHT22;35622;52.008;5.426;2023-09-08T04:31:36;20.90;79.40
49731;DHT22;35622;52.008;5.426;2023-09-08T04:34:02;21.00;79.50
49731;DHT22;35622;52.008;5.426;2023-09-08T04:36:28;21.00;79.30
49731;DHT22;35622;52.008;5.426;2023-09-08T04:38:56;21.00;79.50
49731;DHT22;35622;52.008;5.426;2023-09-08T04:41:21;21.00;79.30
49731;DHT22;35622;52.008;5.426;2023-09-08T04:43:47;21.00;79.30
49731;DHT22;35622;52.008;5.426;2023-09-08T04:46:12;21.00;79.30
49731;DHT22;35622;52.008;5.426;2023-09-08T04:48:38;21.10;79.20
49731;DHT22;35622;52.008;5.426;2023-09-08T04:51:03;21.10;79.10
49731;DHT22;35622;52.008;5.426;2023-09-08T04:53:29;21.10;79.10
49731;DHT22;35622;52.008;5.426;2023-09-08T04:55:55;21.10;79.10
49731;DHT22;35622;52.008;5.426;2023-09-08T04:58:20;21.10;79.00
49731;DHT22;35622;52.008;5.426;2023-09-08T05:00:46;21.10;78.90
49731;DHT22;35622;52.008;5.426;2023-09-08T05:03:11;21.10;78.80
49731;DHT22;35622;52.008;5.426;2023-09-08T05:05:37;21.10;78.90
49731;DHT22;35622;52.008;5.426;2023-09-08T05:08:04;21.10;79.10
49731;DHT22;35622;52.008;5.426;2023-09-08T05:10:29;21.00;79.00
49731;DHT22;35622;52.008;5.426;2023-09-08T05:12:55;21.00;79.20
49731;DHT22;35622;52.008;5.426;2023-09-08T05:15:20;21.00;79.50
49731;DHT22;35622;52.008;5.426;2023-09-08T05:17:47;21.00;79.30
49731;DHT22;35622;52.008;5.426;2023-09-08T05:20:12;21.00;79.30
49731;DHT22;35622;52.008;5.426;2023-09-08T05:22:38;21.00;79.30
49731;DHT22;35622;52.008;5.426;2023-09-08T05:25:04;21.00;79.60
49731;DHT22;35622;52.008;5.426;2023-09-08T05:27:29;21.10;79.50
49731;DHT22;35622;52.008;5.426;2023-09-08T05:29:55;21.10;79.50
49731;DHT22;35622;52.008;5.426;2023-09-08T05:32:20;21.00;79.60
49731;DHT22;35622;52.008;5.426;2023-09-08T05:34:46;21.10;79.60
49731;DHT22;35622;52.008;5.426;2023-09-08T05:37:12;21.10;79.40
49731;DHT22;35622;52.008;5.426;2023-09-08T05:39:37;21.10;79.50
49731;DHT22;35622;52.008;5.426;2023-09-08T05:42:03;21.00;79.80
49731;DHT22;35622;52.008;5.426;2023-09-08T05:44:28;21.10;79.80
49731;DHT22;35622;52.008;5.426;2023-09-08T05:46:54;21.10;79.90
49731;DHT22;35622;52.008;5.426;2023-09-08T05:49:19;21.10;80.20
49731;DHT22;35622;52.008;5.426;2023-09-08T05:51:46;21.20;80.20
49731;DHT22;35622;52.008;5.426;2023-09-08T05:54:11;21.20;80.00
49731;DHT22;35622;52.008;5.426;2023-09-08T05:56:38;21.30;80.20
49731;DHT22;35622;52.008;5.426;2023-09-08T05:59:04;21.20;80.50
49731;DHT22;35622;52.008;5.426;2023-09-08T06:01:30;21.30;80.80
49731;DHT22;35622;52.008;5.426;2023-09-08T06:03:56;21.40;80.60
49731;DHT22;35622;52.008;5.426;2023-09-08T06:06:21;21.40;80.50
49731;DHT22;35622;52.008;5.426;2023-09-08T06:08:47;21.60;80.40
49731;DHT22;35622;52.008;5.426;2023-09-08T06:11:13;21.60;80.80
49731;DHT22;35622;52.008;5.426;2023-09-08T06:13:38;21.70;80.30
49731;DHT22;35622;52.008;5.426;2023-09-08T06:16:04;21.80;80.00
49731;DHT22;35622;52.008;5.426;2023-09-08T06:18:30;22.00;80.20
49731;DHT22;35622;52.008;5.426;2023-09-08T06:20:56;22.20;79.60
49731;DHT22;35622;52.008;5.426;2023-09-08T06:23:22;22.30;78.80
49731;DHT22;35622;52.008;5.426;2023-09-08T06:25:48;22.40;77.80
49731;DHT22;35622;52.008;5.426;2023-09-08T06:28:14;22.40;78.10
49731;DHT22;35622;52.008;5.426;2023-09-08T06:30:39;22.60;77.50
49731;DHT22;35622;52.008;5.426;2023-09-08T06:33:07;23.40;78.40
49731;DHT22;35622;52.008;5.426;2023-09-08T06:35:33;24.50;74.60
49731;DHT22;35622;52.008;5.426;2023-09-08T06:37:59;25.70;70.00
49731;DHT22;35622;52.008;5.426;2023-09-08T06:40:25;27.00;64.50
49731;DHT22;35622;52.008;5.426;2023-09-08T06:42:51;28.00;60.20
49731;DHT22;35622;52.008;5.426;2023-09-08T06:45:16;28.90;57.10
49731;DHT22;35622;52.008;5.426;2023-09-08T06:47:43;29.80;55.10
49731;DHT22;35622;52.008;5.426;2023-09-08T06:50:09;30.60;52.80
49731;DHT22;35622;52.008;5.426;2023-09-08T06:52:35;31.20;51.00
49731;DHT22;35622;52.008;5.426;2023-09-08T06:55:01;31.80;49.80
49731;DHT22;35622;52.008;5.426;2023-09-08T06:57:26;32.10;48.30
49731;DHT22;35622;52.008;5.426;2023-09-08T06:59:52;32.60;47.60
49731;DHT22;35622;52.008;5.426;2023-09-08T07:02:17;32.90;45.80
49731;DHT22;35622;52.008;5.426;2023-09-08T07:04:43;33.40;45.40
49731;DHT22;35622;52.008;5.426;2023-09-08T07:07:09;33.80;44.20
49731;DHT22;35622;52.008;5.426;2023-09-08T07:09:36;34.10;42.10
49731;DHT22;35622;52.008;5.426;2023-09-08T07:12:03;34.40;40.80
49731;DHT22;35622;52.008;5.426;2023-09-08T07:14:29;34.60;42.50
49731;DHT22;35622;52.008;5.426;2023-09-08T07:16:54;34.90;41.60
49731;DHT22;35622;52.008;5.426;2023-09-08T07:19:20;35.00;41.60
49731;DHT22;35622;52.008;5.426;2023-09-08T07:21:45;35.30;41.30
49731;DHT22;35622;52.008;5.426;2023-09-08T07:24:11;35.40;40.40
49731;DHT22;35622;52.008;5.426;2023-09-08T07:26:37;35.50;39.30
49731;DHT22;35622;52.008;5.426;2023-09-08T07:29:03;35.60;40.00
49731;DHT22;35622;52.008;5.426;2023-09-08T07:31:28;35.80;40.00
49731;DHT22;35622;52.008;5.426;2023-09-08T07:33:54;35.80;38.20
49731;DHT22;35622;52.008;5.426;2023-09-08T07:36:19;35.90;39.40
49731;DHT22;35622;52.008;5.426;2023-09-08T07:38:45;35.90;39.00
49731;DHT22;35622;52.008;5.426;2023-09-08T07:41:11;36.10;39.40
49731;DHT22;35622;52.008;5.426;2023-09-08T07:43:37;35.90;38.20
49731;DHT22;35622;52.008;5.426;2023-09-08T07:46:06;35.90;39.50
49731;DHT22;35622;52.008;5.426;2023-09-08T07:48:31;36.10;39.10
49731;DHT22;35622;52.008;5.426;2023-09-08T07:50:57;36.40;39.00
49731;DHT22;35622;52.008;5.426;2023-09-08T07:53:25;36.60;38.80
49731;DHT22;35622;52.008;5.426;2023-09-08T07:55:51;36.70;39.10
49731;DHT22;35622;52.008;5.426;2023-09-08T07:58:16;36.90;38.80
49731;DHT22;35622;52.008;5.426;2023-09-08T08:00:42;36.90;37.70
49731;DHT22;35622;52.008;5.426;2023-09-08T08:03:07;36.60;38.20
49731;DHT22;35622;52.008;5.426;2023-09-08T08:05:33;36.60;39.40
49731;DHT22;35622;52.008;5.426;2023-09-08T08:07:59;36.40;38.50
49731;DHT22;35622;52.008;5.426;2023-09-08T08:10:25;36.60;38.50
49731;DHT22;35622;52.008;5.426;2023-09-08T08:12:50;36.90;38.10
49731;DHT22;35622;52.008;5.426;2023-09-08T08:15:19;37.00;38.10
49731;DHT22;35622;52.008;5.426;2023-09-08T08:17:46;37.10;38.10
49731;DHT22;35622;52.008;5.426;2023-09-08T08:20:11;37.10;35.60
49731;DHT22;35622;52.008;5.426;2023-09-08T08:22:43;37.30;38.80
49731;DHT22;35622;52.008;5.426;2023-09-08T08:25:09;37.50;38.00
49731;DHT22;35622;52.008;5.426;2023-09-08T08:27:35;37.90;37.20
49731;DHT22;35622;52.008;5.426;2023-09-08T08:30:00;38.00;34.90
49731;DHT22;35622;52.008;5.426;2023-09-08T08:32:27;37.90;34.10
49731;DHT22;35622;52.008;5.426;2023-09-08T08:34:52;37.70;36.00
49731;DHT22;35622;52.008;5.426;2023-09-08T08:37:18;37.70;37.50
49731;DHT22;35622;52.008;5.426;2023-09-08T08:39:43;37.60;35.20
49731;DHT22;35622;52.008;5.426;2023-09-08T08:42:10;37.70;37.60
49731;DHT22;35622;52.008;5.426;2023-09-08T08:44:38;37.80;35.30
49731;DHT22;35622;52.008;5.426;2023-09-08T08:47:06;37.20;35.00
49731;DHT22;35622;52.008;5.426;2023-09-08T08:49:33;36.60;36.10
49731;DHT22;35622;52.008;5.426;2023-09-08T08:51:59;36.70;37.40
49731;DHT22;35622;52.008;5.426;2023-09-08T08:54:25;36.40;36.60
49731;DHT22;35622;52.008;5.426;2023-09-08T08:56:51;36.30;36.50
49731;DHT22;35622;52.008;5.426;2023-09-08T08:59:17;36.20;37.70
49731;DHT22;35622;52.008;5.426;2023-09-08T09:01:43;36.40;37.20
49731;DHT22;35622;52.008;5.426;2023-09-08T09:04:10;36.30;38.10
49731;DHT22;35622;52.008;5.426;2023-09-08T09:06:36;36.60;38.80
49731;DHT22;35622;52.008;5.426;2023-09-08T09:09:02;37.10;36.60
49731;DHT22;35622;52.008;5.426;2023-09-08T09:11:30;37.20;37.00
49731;DHT22;35622;52.008;5.426;2023-09-08T09:13:57;37.20;36.00
49731;DHT22;35622;52.008;5.426;2023-09-08T09:16:22;37.30;37.20
49731;DHT22;35622;52.008;5.426;2023-09-08T09:18:59;37.10;35.50
49731;DHT22;35622;52.008;5.426;2023-09-08T09:21:44;36.70;39.20
49731;DHT22;35622;52.008;5.426;2023-09-08T09:24:27;36.90;38.50
49731;DHT22;35622;52.008;5.426;2023-09-08T09:26:53;37.00;36.90
49731;DHT22;35622;52.008;5.426;2023-09-08T09:29:19;36.50;38.50
49731;DHT22;35622;52.008;5.426;2023-09-08T09:32:05;36.70;39.80
49731;DHT22;35622;52.008;5.426;2023-09-08T09:34:31;36.70;37.20
49731;DHT22;35622;52.008;5.426;2023-09-08T09:36:57;36.20;37.60
49731;DHT22;35622;52.008;5.426;2023-09-08T09:39:24;36.30;38.70
49731;DHT22;35622;52.008;5.426;2023-09-08T09:41:54;36.60;39.30
49731;DHT22;35622;52.008;5.426;2023-09-08T09:44:19;36.80;39.30
49731;DHT22;35622;52.008;5.426;2023-09-08T09:46:46;37.00;38.40
49731;DHT22;35622;52.008;5.426;2023-09-08T09:49:13;37.40;38.10
49731;DHT22;35622;52.008;5.426;2023-09-08T09:51:49;37.60;35.80
49731;DHT22;35622;52.008;5.426;2023-09-08T09:54:16;36.80;37.00
49731;DHT22;35622;52.008;5.426;2023-09-08T09:56:43;36.60;41.10
49731;DHT22;35622;52.008;5.426;2023-09-08T09:59:11;36.60;37.70
49731;DHT22;35622;52.008;5.426;2023-09-08T10:01:39;36.40;38.90
49731;DHT22;35622;52.008;5.426;2023-09-08T10:04:05;36.40;42.20
49731;DHT22;35622;52.008;5.426;2023-09-08T10:06:32;36.40;39.00
49731;DHT22;35622;52.008;5.426;2023-09-08T10:09:03;36.60;38.80
49731;DHT22;35622;52.008;5.426;2023-09-08T10:14:28;36.20;38.70
49731;DHT22;35622;52.008;5.426;2023-09-08T10:16:57;36.30;39.10
49731;DHT22;35622;52.008;5.426;2023-09-08T10:19:25;36.40;40.20
49731;DHT22;35622;52.008;5.426;2023-09-08T10:21:54;36.40;40.60
49731;DHT22;35622;52.008;5.426;2023-09-08T10:24:34;36.50;39.50
49731;DHT22;35622;52.008;5.426;2023-09-08T10:27:09;36.70;40.10
49731;DHT22;35622;52.008;5.426;2023-09-08T10:29:35;36.60;38.60
49731;DHT22;35622;52.008;5.426;2023-09-08T10:32:02;35.80;40.30
49731;DHT22;35622;52.008;5.426;2023-09-08T10:34:28;35.80;41.50
49731;DHT22;35622;52.008;5.426;2023-09-08T10:36:55;36.00;40.00
49731;DHT22;35622;52.008;5.426;2023-09-08T10:39:31;36.30;40.70
49731;DHT22;35622;52.008;5.426;2023-09-08T10:44:41;36.40;41.30
49731;DHT22;35622;52.008;5.426;2023-09-08T10:47:07;36.70;40.60
49731;DHT22;35622;52.008;5.426;2023-09-08T10:49:36;36.70;39.30
49731;DHT22;35622;52.008;5.426;2023-09-08T10:52:09;36.70;39.60
49731;DHT22;35622;52.008;5.426;2023-09-08T10:54:42;36.70;40.80
49731;DHT22;35622;52.008;5.426;2023-09-08T10:57:15;36.90;39.80
49731;DHT22;35622;52.008;5.426;2023-09-08T10:59:48;37.00;38.80
49731;DHT22;35622;52.008;5.426;2023-09-08T11:02:36;37.00;37.70
49731;DHT22;35622;52.008;5.426;2023-09-08T11:05:07;36.70;39.30
49731;DHT22;35622;52.008;5.426;2023-09-08T11:07:38;36.30;39.90
49731;DHT22;35622;52.008;5.426;2023-09-08T11:10:05;36.00;41.20
49731;DHT22;35622;52.008;5.426;2023-09-08T11:12:31;35.80;39.90
49731;DHT22;35622;52.008;5.426;2023-09-08T11:14:57;36.10;42.20
49731;DHT22;35622;52.008;5.426;2023-09-08T11:17:26;36.10;39.90
49731;DHT22;35622;52.008;5.426;2023-09-08T11:19:53;36.20;40.50
49731;DHT22;35622;52.008;5.426;2023-09-08T11:22:24;35.90;40.60
49731;DHT22;35622;52.008;5.426;2023-09-08T11:24:52;35.50;40.90
49731;DHT22;35622;52.008;5.426;2023-09-08T11:27:18;34.70;42.20
49731;DHT22;35622;52.008;5.426;2023-09-08T11:29:44;35.30;42.90
49731;DHT22;35622;52.008;5.426;2023-09-08T11:32:10;35.40;41.10
49731;DHT22;35622;52.008;5.426;2023-09-08T11:34:36;35.30;41.00
49731;DHT22;35622;52.008;5.426;2023-09-08T11:37:12;35.50;41.80
49731;DHT22;35622;52.008;5.426;2023-09-08T11:39:39;35.80;40.50
49731;DHT22;35622;52.008;5.426;2023-09-08T11:42:09;36.20;41.10
49731;DHT22;35622;52.008;5.426;2023-09-08T11:44:35;36.00;40.90
49731;DHT22;35622;52.008;5.426;2023-09-08T11:47:02;35.60;40.30
49731;DHT22;35622;52.008;5.426;2023-09-08T11:49:41;36.00;41.00
49731;DHT22;35622;52.008;5.426;2023-09-08T11:52:09;36.10;42.30
49731;DHT22;35622;52.008;5.426;2023-09-08T11:54:35;36.30;40.10
49731;DHT22;35622;52.008;5.426;2023-09-08T11:57:02;36.80;42.30
49731;DHT22;35622;52.008;5.426;2023-09-08T11:59:31;36.50;40.30
49731;DHT22;35622;52.008;5.426;2023-09-08T12:01:57;36.20;39.70
49731;DHT22;35622;52.008;5.426;2023-09-08T12:04:23;36.30;41.30
49731;DHT22;35622;52.008;5.426;2023-09-08T12:06:51;36.50;40.90
49731;DHT22;35622;52.008;5.426;2023-09-08T12:09:17;36.70;40.10
49731;DHT22;35622;52.008;5.426;2023-09-08T12:11:43;37.00;40.70
49731;DHT22;35622;52.008;5.426;2023-09-08T12:14:11;36.90;39.50
49731;DHT22;35622;52.008;5.426;2023-09-08T12:16:37;37.20;39.20
49731;DHT22;35622;52.008;5.426;2023-09-08T12:19:03;37.00;38.20
49731;DHT22;35622;52.008;5.426;2023-09-08T12:21:29;36.90;39.20
49731;DHT22;35622;52.008;5.426;2023-09-08T12:23:54;36.80;39.80
49731;DHT22;35622;52.008;5.426;2023-09-08T12:26:21;36.30;40.60
49731;DHT22;35622;52.008;5.426;2023-09-08T12:28:47;36.30;41.10
49731;DHT22;35622;52.008;5.426;2023-09-08T12:31:14;36.30;40.00
49731;DHT22;35622;52.008;5.426;2023-09-08T12:33:40;35.70;42.20
49731;DHT22;35622;52.008;5.426;2023-09-08T12:36:18;35.90;42.00
49731;DHT22;35622;52.008;5.426;2023-09-08T12:39:04;36.00;40.70
49731;DHT22;35622;52.008;5.426;2023-09-08T12:41:30;35.90;41.10
49731;DHT22;35622;52.008;5.426;2023-09-08T12:43:55;35.90;43.10
49731;DHT22;35622;52.008;5.426;2023-09-08T12:46:21;35.80;41.30
49731;DHT22;35622;52.008;5.426;2023-09-08T12:48:47;35.50;43.30
49731;DHT22;35622;52.008;5.426;2023-09-08T12:51:12;35.30;41.60
49731;DHT22;35622;52.008;5.426;2023-09-08T12:53:38;35.10;42.60
49731;DHT22;35622;52.008;5.426;2023-09-08T12:56:03;35.50;43.80
49731;DHT22;35622;52.008;5.426;2023-09-08T12:58:29;35.60;42.40
49731;DHT22;35622;52.008;5.426;2023-09-08T13:00:54;35.50;42.10
49731;DHT22;35622;52.008;5.426;2023-09-08T13:03:21;35.60;43.00
49731;DHT22;35622;52.008;5.426;2023-09-08T13:05:46;35.60;41.30
49731;DHT22;35622;52.008;5.426;2023-09-08T13:08:12;35.20;42.50
49731;DHT22;35622;52.008;5.426;2023-09-08T13:10:40;34.80;42.10
49731;DHT22;35622;52.008;5.426;2023-09-08T13:13:06;35.00;43.20
49731;DHT22;35622;52.008;5.426;2023-09-08T13:15:31;35.10;42.40
49731;DHT22;35622;52.008;5.426;2023-09-08T13:17:57;35.20;44.40
49731;DHT22;35622;52.008;5.426;2023-09-08T13:20:22;35.20;43.30
49731;DHT22;35622;52.008;5.426;2023-09-08T13:22:48;35.50;42.30
49731;DHT22;35622;52.008;5.426;2023-09-08T13:25:13;34.90;43.20
49731;DHT22;35622;52.008;5.426;2023-09-08T13:27:42;34.70;42.80
49731;DHT22;35622;52.008;5.426;2023-09-08T13:30:15;34.70;42.90
49731;DHT22;35622;52.008;5.426;2023-09-08T13:32:41;34.70;44.70
49731;DHT22;35622;52.008;5.426;2023-09-08T13:35:07;34.70;44.40
49731;DHT22;35622;52.008;5.426;2023-09-08T13:37:32;34.70;45.00
49731;DHT22;35622;52.008;5.426;2023-09-08T13:40:00;34.70;43.40
49731;DHT22;35622;52.008;5.426;2023-09-08T13:42:26;34.20;44.00
49731;DHT22;35622;52.008;5.426;2023-09-08T13:44:51;34.10;42.20
49731;DHT22;35622;52.008;5.426;2023-09-08T13:47:17;34.30;42.80
49731;DHT22;35622;52.008;5.426;2023-09-08T13:49:42;34.20;44.60
49731;DHT22;35622;52.008;5.426;2023-09-08T13:52:08;34.50;45.60
49731;DHT22;35622;52.008;5.426;2023-09-08T13:54:33;34.60;41.70
49731;DHT22;35622;52.008;5.426;2023-09-08T13:57:03;34.60;44.10
49731;DHT22;35622;52.008;5.426;2023-09-08T13:59:30;34.40;43.50
49731;DHT22;35622;52.008;5.426;2023-09-08T14:01:56;34.70;44.40
49731;DHT22;35622;52.008;5.426;2023-09-08T14:04:23;34.70;43.50
49731;DHT22;35622;52.008;5.426;2023-09-08T14:06:48;34.80;44.20
49731;DHT22;35622;52.008;5.426;2023-09-08T14:09:14;34.60;43.20
49731;DHT22;35622;52.008;5.426;2023-09-08T14:11:40;34.80;43.60
49731;DHT22;35622;52.008;5.426;2023-09-08T14:14:06;34.80;46.00
49731;DHT22;35622;52.008;5.426;2023-09-08T14:16:32;34.70;45.70
49731;DHT22;35622;52.008;5.426;2023-09-08T14:18:57;35.00;45.40
49731;DHT22;35622;52.008;5.426;2023-09-08T14:21:23;34.60;43.80
49731;DHT22;35622;52.008;5.426;2023-09-08T14:23:48;34.30;44.00
49731;DHT22;35622;52.008;5.426;2023-09-08T14:26:14;34.40;44.00
49731;DHT22;35622;52.008;5.426;2023-09-08T14:28:39;34.40;45.90
49731;DHT22;35622;52.008;5.426;2023-09-08T14:31:05;34.30;43.70
49731;DHT22;35622;52.008;5.426;2023-09-08T14:33:30;34.30;45.50
49731;DHT22;35622;52.008;5.426;2023-09-08T14:35:56;34.20;45.70
49731;DHT22;35622;52.008;5.426;2023-09-08T14:38:22;34.40;46.40
49731;DHT22;35622;52.008;5.426;2023-09-08T14:40:59;34.40;44.10
49731;DHT22;35622;52.008;5.426;2023-09-08T14:43:26;34.50;44.70
49731;DHT22;35622;52.008;5.426;2023-09-08T14:45:52;34.40;46.40
49731;DHT22;35622;52.008;5.426;2023-09-08T14:48:18;34.30;44.60
49731;DHT22;35622;52.008;5.426;2023-09-08T14:50:43;34.20;44.10
49731;DHT22;35622;52.008;5.426;2023-09-08T14:53:09;33.90;45.70
49731;DHT22;35622;52.008;5.426;2023-09-08T14:55:35;34.00;45.40
49731;DHT22;35622;52.008;5.426;2023-09-08T14:58:01;34.10;46.10
49731;DHT22;35622;52.008;5.426;2023-09-08T15:00:27;34.20;45.80
49731;DHT22;35622;52.008;5.426;2023-09-08T15:02:52;33.80;45.00
49731;DHT22;35622;52.008;5.426;2023-09-08T15:05:18;33.70;46.70
49731;DHT22;35622;52.008;5.426;2023-09-08T15:07:44;33.90;47.10
49731;DHT22;35622;52.008;5.426;2023-09-08T15:10:09;33.50;46.90
49731;DHT22;35622;52.008;5.426;2023-09-08T15:12:35;33.50;47.10
49731;DHT22;35622;52.008;5.426;2023-09-08T15:15:01;33.20;45.40
49731;DHT22;35622;52.008;5.426;2023-09-08T15:17:27;33.30;46.90
49731;DHT22;35622;52.008;5.426;2023-09-08T15:19:53;33.50;47.60
49731;DHT22;35622;52.008;5.426;2023-09-08T15:22:18;33.70;47.90
49731;DHT22;35622;52.008;5.426;2023-09-08T15:24:44;33.50;47.00
49731;DHT22;35622;52.008;5.426;2023-09-08T15:27:09;33.50;47.90
49731;DHT22;35622;52.008;5.426;2023-09-08T15:29:35;33.60;46.20
49731;DHT22;35622;52.008;5.426;2023-09-08T15:32:00;33.60;47.90
49731;DHT22;35622;52.008;5.426;2023-09-08T15:34:26;33.60;47.70